createdAt,value
2022-10-01T05:29:48.313Z,86.40
2022-10-01T05:32:57.939Z,86.40
2022-10-01T05:35:59.725Z,86.60
2022-10-01T05:39:01.856Z,86.60
2022-10-01T05:42:06.396Z,86.60
2022-10-01T05:45:10.079Z,86.50
2022-10-01T05:48:12.793Z,86.50
2022-10-01T05:51:15.157Z,86.40
2022-10-01T05:54:19.549Z,86.50
2022-10-01T05:57:21.200Z,86.60
2022-10-01T06:00:23.031Z,86.70
2022-10-01T06:03:25.605Z,86.70
2022-10-01T06:06:27.523Z,86.70
2022-10-01T06:09:30.050Z,86.70
2022-10-01T06:12:34.123Z,86.60
2022-10-01T06:15:39.915Z,86.60
2022-10-01T06:18:42.241Z,86.50
2022-10-01T06:21:43.894Z,86.40
2022-10-01T06:24:45.752Z,86.40
2022-10-01T06:27:57.889Z,86.40
2022-10-01T06:31:02.600Z,86.30
2022-10-01T06:34:04.334Z,86.20
2022-10-01T06:37:05.962Z,86.20
2022-10-01T06:40:08.110Z,86.10
2022-10-01T06:43:09.847Z,85.80
2022-10-01T06:46:11.578Z,85.70
2022-10-01T06:49:13.831Z,85.60
2022-10-01T06:52:44.832Z,85.50
2022-10-01T06:55:46.593Z,85.40
2022-10-01T06:58:48.495Z,85.30
2022-10-01T07:01:55.486Z,85.30
2022-10-01T07:05:01.530Z,85.30
2022-10-01T07:08:03.232Z,85.10
2022-10-01T07:11:05.076Z,85.00
2022-10-01T07:14:07.383Z,84.80
2022-10-01T07:17:09.017Z,84.60
2022-10-01T07:20:11.090Z,84.40
2022-10-01T07:23:13.696Z,84.20
2022-10-01T07:26:15.508Z,84.20
2022-10-01T07:29:17.670Z,83.90
2022-10-01T07:32:19.334Z,83.70
2022-10-01T07:35:21.136Z,83.60
2022-10-01T07:38:22.861Z,83.50
2022-10-01T07:41:24.901Z,83.40
2022-10-01T07:44:27.822Z,83.20
2022-10-01T07:47:29.618Z,83.20
2022-10-01T07:50:31.566Z,82.90
2022-10-01T07:53:33.190Z,82.60
2022-10-01T07:56:34.878Z,82.50
2022-10-01T07:59:38.147Z,82.30
2022-10-01T08:02:39.904Z,82.30
2022-10-01T08:05:42.706Z,82.10
2022-10-01T08:08:44.664Z,82.00
2022-10-01T08:11:47.386Z,81.80
2022-10-01T08:14:49.018Z,81.60
2022-10-01T08:17:50.668Z,81.40
2022-10-01T08:20:52.791Z,81.20
2022-10-01T08:23:54.495Z,81.00
2022-10-01T08:26:57.428Z,80.80
2022-10-01T08:29:59.109Z,80.60
2022-10-01T08:33:01.873Z,80.30
2022-10-01T08:36:04.399Z,80.10
2022-10-01T08:39:06.275Z,79.90
2022-10-01T08:42:33.294Z,79.40
2022-10-01T08:45:36.629Z,78.90
2022-10-01T08:49:09.649Z,78.40
2022-10-01T08:52:25.314Z,77.80
2022-10-01T08:55:28.096Z,77.00
2022-10-01T08:58:34.481Z,76.30
2022-10-01T09:01:37.087Z,75.80
2022-10-01T09:04:39.055Z,75.50
2022-10-01T09:08:08.139Z,75.40
2022-10-01T09:11:24.831Z,75.30
2022-10-01T09:15:22.996Z,74.30
2022-10-01T09:18:43.207Z,73.70
2022-10-01T09:21:56.857Z,73.60
2022-10-01T09:25:07.802Z,73.40
2022-10-01T09:28:22.643Z,73.40
2022-10-01T09:31:27.491Z,72.80
2022-10-01T09:34:37.675Z,72.70
2022-10-01T09:37:44.572Z,72.20
2022-10-01T09:40:53.424Z,71.30
2022-10-01T09:43:55.061Z,70.40
2022-10-01T09:46:56.701Z,70.10
2022-10-01T09:49:59.146Z,69.80
2022-10-01T09:53:00.866Z,69.50
2022-10-01T09:56:15.431Z,69.60
2022-10-01T09:59:20.647Z,69.20
2022-10-01T10:02:46.057Z,68.70
2022-10-01T10:05:50.818Z,68.50
2022-10-01T10:08:52.783Z,68.30
2022-10-01T10:11:56.602Z,68.50
2022-10-01T10:15:08.846Z,68.60
2022-10-01T10:18:20.293Z,68.70
2022-10-01T10:21:29.614Z,68.60
2022-10-01T10:24:33.098Z,68.40
2022-10-01T10:27:36.308Z,67.80
2022-10-01T10:30:38.039Z,67.70
2022-10-01T10:33:49.558Z,67.40
2022-10-01T10:36:57.026Z,66.70
2022-10-01T10:39:58.839Z,66.50
2022-10-01T10:43:00.495Z,66.10
2022-10-01T10:46:02.876Z,65.90
2022-10-01T10:49:16.005Z,65.60
2022-10-01T10:52:36.829Z,65.50
2022-10-01T10:55:39.138Z,65.20
2022-10-01T10:58:42.499Z,64.80
2022-10-01T11:01:44.484Z,64.20
2022-10-01T11:04:46.372Z,64.10
2022-10-01T11:07:48.852Z,64.00
2022-10-01T11:11:12.977Z,63.00
2022-10-01T11:14:39.893Z,62.70
2022-10-01T11:17:51.685Z,62.80
2022-10-01T11:20:57.172Z,62.50
2022-10-01T11:23:58.802Z,61.90
2022-10-01T11:27:27.277Z,61.80
2022-10-01T11:30:54.135Z,61.60
2022-10-01T11:34:11.166Z,60.90
2022-10-01T11:37:37.568Z,60.50
2022-10-01T11:40:43.685Z,59.90
2022-10-01T11:43:52.567Z,59.90
2022-10-01T11:47:05.756Z,60.00
2022-10-01T11:50:21.763Z,60.20
2022-10-01T11:53:33.856Z,60.10
2022-10-01T11:56:57.795Z,59.70
2022-10-01T12:00:02.450Z,59.60
2022-10-01T12:03:05.270Z,59.10
2022-10-01T12:06:09.303Z,58.70
2022-10-01T12:09:42.654Z,58.90
2022-10-01T12:12:57.120Z,58.90
2022-10-01T12:16:16.987Z,59.00
2022-10-01T12:19:25.515Z,59.10
2022-10-01T12:22:31.716Z,59.50
2022-10-01T12:25:49.006Z,59.80
2022-10-01T12:29:02.211Z,60.10
2022-10-01T12:32:22.729Z,60.30
2022-10-01T12:35:47.503Z,60.30
2022-10-01T12:39:01.590Z,60.00
2022-10-01T12:42:25.354Z,59.60
2022-10-01T12:46:14.300Z,59.40
2022-10-01T12:49:22.283Z,59.30
2022-10-01T12:52:54.931Z,59.50
2022-10-01T12:56:11.635Z,59.50
2022-10-01T12:59:20.410Z,59.60
2022-10-01T13:02:47.639Z,59.00
2022-10-01T13:05:55.422Z,58.30
2022-10-01T13:09:08.937Z,57.40
2022-10-01T13:12:33.619Z,57.10
2022-10-01T13:15:37.720Z,56.50
2022-10-01T13:18:39.514Z,56.40
2022-10-01T13:21:53.480Z,56.40
2022-10-01T13:25:24.494Z,56.50
2022-10-01T13:28:46.219Z,56.70
2022-10-01T13:31:58.862Z,57.10
2022-10-01T13:35:03.548Z,56.90
2022-10-01T13:38:16.789Z,57.10
2022-10-01T13:41:28.894Z,57.20
2022-10-01T13:44:33.830Z,57.10
2022-10-01T13:47:40.081Z,57.00
2022-10-01T13:51:05.474Z,56.70
2022-10-01T13:54:09.158Z,56.60
2022-10-01T13:57:22.641Z,56.50
2022-10-01T14:00:24.760Z,56.50
2022-10-01T14:03:53.484Z,56.00
2022-10-01T14:06:56.989Z,55.90
2022-10-01T14:09:58.916Z,56.00
2022-10-01T14:13:21.782Z,55.80
2022-10-01T14:16:23.845Z,56.00
2022-10-01T14:19:26.569Z,56.10
2022-10-01T14:22:49.450Z,55.90
2022-10-01T14:25:53.998Z,55.50
2022-10-01T14:29:21.155Z,55.10
2022-10-01T14:32:53.622Z,54.90
2022-10-01T14:36:09.282Z,55.20
2022-10-01T14:39:18.914Z,55.20
2022-10-01T14:42:20.556Z,54.70
2022-10-01T14:45:22.355Z,54.70
2022-10-01T14:48:29.310Z,54.60
2022-10-01T14:51:31.152Z,54.70
2022-10-01T14:54:42.569Z,54.40
2022-10-01T14:57:47.270Z,54.00
2022-10-01T15:00:50.078Z,54.10
2022-10-01T15:03:52.476Z,54.00
2022-10-01T15:06:54.158Z,53.50
2022-10-01T15:10:05.666Z,52.40
2022-10-01T15:13:07.351Z,51.70
2022-10-01T15:16:16.680Z,50.30
2022-10-01T15:19:19.678Z,50.40
2022-10-01T15:22:27.270Z,50.30
2022-10-01T15:25:29.662Z,50.80
2022-10-01T15:28:32.973Z,51.50
2022-10-01T15:31:34.799Z,51.20
2022-10-01T15:34:36.511Z,50.30
2022-10-01T15:37:38.291Z,49.70
2022-10-01T15:40:40.226Z,49.10
2022-10-01T15:43:42.199Z,48.40
2022-10-01T15:46:43.861Z,47.90
2022-10-01T15:50:11.086Z,47.30
2022-10-01T15:53:18.204Z,46.30
2022-10-01T15:56:23.760Z,46.80
2022-10-01T15:59:25.707Z,47.50
2022-10-01T16:02:28.912Z,47.70
2022-10-01T16:05:44.329Z,48.10
2022-10-01T16:09:23.662Z,48.10
2022-10-01T16:12:27.159Z,47.50
2022-10-01T16:15:30.099Z,47.00
2022-10-01T16:18:34.606Z,46.60
2022-10-01T16:21:40.569Z,46.60
2022-10-01T16:24:46.459Z,46.30
2022-10-01T16:27:55.573Z,47.40
2022-10-01T16:30:57.284Z,47.90
2022-10-01T16:33:58.974Z,47.70
2022-10-01T16:37:00.612Z,47.30
2022-10-01T16:40:02.486Z,47.10
2022-10-01T16:43:04.326Z,47.00
2022-10-01T16:46:06.104Z,47.00
2022-10-01T16:49:14.446Z,47.70
2022-10-01T16:52:16.631Z,49.00
2022-10-01T16:55:24.021Z,50.00
2022-10-01T16:58:29.087Z,50.90
2022-10-01T17:01:30.782Z,51.50
2022-10-01T17:04:34.019Z,52.10
2022-10-01T17:07:35.891Z,52.60
2022-10-01T17:10:45.427Z,52.80
2022-10-01T17:13:47.077Z,53.20
2022-10-01T17:16:50.734Z,53.40
2022-10-01T17:19:52.612Z,53.60
2022-10-01T17:22:54.507Z,53.80
2022-10-01T17:25:56.215Z,54.00
2022-10-01T17:28:57.893Z,54.20
2022-10-01T17:31:59.602Z,54.70
2022-10-01T17:35:01.281Z,54.90
2022-10-01T17:38:03.150Z,55.20
2022-10-01T17:41:04.878Z,55.50
2022-10-01T17:44:06.509Z,55.80
2022-10-01T17:47:09.087Z,56.20
2022-10-01T17:50:10.999Z,56.50
2022-10-01T17:53:12.897Z,56.80
2022-10-01T17:56:16.147Z,57.10
2022-10-01T17:59:19.003Z,57.40
2022-10-01T18:02:40.484Z,57.70
2022-10-01T18:05:42.251Z,58.00
2022-10-01T18:08:55.120Z,58.10
2022-10-01T18:11:57.842Z,58.20
2022-10-01T18:14:59.835Z,58.40
2022-10-01T18:19:31.012Z,58.60
2022-10-01T18:21:23.150Z,58.70
2022-10-01T18:24:25.222Z,59.00
2022-10-01T18:27:26.859Z,59.10
2022-10-01T18:30:28.533Z,59.30
2022-10-01T18:33:30.189Z,59.40
2022-10-01T18:36:38.038Z,59.40
2022-10-01T18:39:49.796Z,59.50
2022-10-01T18:43:23.861Z,59.60
2022-10-01T18:46:50.649Z,59.70
2022-10-01T18:50:00.447Z,59.80
2022-10-01T18:53:15.158Z,60.00
2022-10-01T18:56:19.645Z,60.20
2022-10-01T18:59:35.585Z,60.20
2022-10-01T19:03:09.882Z,60.50
2022-10-01T19:06:13.930Z,60.70
2022-10-01T19:09:31.177Z,61.10
2022-10-01T19:12:38.727Z,61.40
2022-10-01T19:15:55.702Z,61.50
2022-10-01T19:19:18.764Z,61.70
2022-10-01T19:22:40.792Z,61.90
2022-10-01T19:25:51.488Z,62.10
2022-10-01T19:29:06.540Z,62.40
2022-10-01T19:32:12.594Z,62.50
2022-10-01T19:35:22.490Z,62.50
2022-10-01T19:38:37.057Z,62.70
2022-10-01T19:41:56.314Z,62.90
2022-10-01T19:45:01.150Z,63.10
2022-10-01T19:48:26.056Z,63.10
2022-10-01T19:51:34.175Z,63.40
2022-10-01T19:54:39.397Z,63.50
2022-10-01T19:57:44.145Z,63.50
2022-10-01T20:00:48.174Z,63.80
2022-10-01T20:04:14.728Z,64.00
2022-10-01T20:07:19.466Z,64.00
2022-10-01T20:10:38.699Z,64.00
2022-10-01T20:13:59.482Z,64.20
2022-10-01T20:17:03.566Z,64.40
2022-10-01T20:20:11.648Z,64.40
2022-10-01T20:23:32.282Z,64.60
2022-10-01T20:26:48.389Z,64.70
2022-10-01T20:29:56.412Z,64.90
2022-10-01T20:33:01.479Z,65.00
2022-10-01T20:36:06.422Z,65.20
2022-10-01T20:39:28.765Z,65.30
2022-10-01T20:42:41.477Z,65.40
2022-10-01T20:45:43.170Z,65.60
2022-10-01T20:48:47.651Z,65.70
2022-10-01T20:52:10.968Z,65.80
2022-10-01T20:55:18.171Z,66.00
2022-10-01T20:58:49.035Z,66.20
2022-10-01T21:02:18.978Z,66.60
2022-10-01T21:05:22.774Z,66.60
2022-10-01T21:08:43.470Z,66.80
2022-10-01T21:11:56.343Z,66.90
2022-10-01T21:14:57.980Z,67.00
2022-10-01T21:18:17.425Z,67.30
2022-10-01T21:21:41.148Z,67.40
2022-10-01T21:24:50.403Z,67.50
2022-10-01T21:28:01.972Z,67.70
2022-10-01T21:31:23.015Z,67.70
2022-10-01T21:34:34.043Z,67.80
2022-10-01T21:37:42.832Z,68.00
2022-10-01T21:41:15.889Z,68.00
2022-10-01T21:44:38.806Z,68.20
2022-10-01T21:48:04.694Z,68.30
2022-10-01T21:51:15.101Z,68.40
2022-10-01T21:54:48.559Z,68.50
2022-10-01T21:57:53.222Z,68.70
2022-10-01T22:01:16.227Z,68.70
2022-10-01T22:04:39.203Z,68.70
